createdAt,value
2022-10-14T00:01:08.246Z,93.60
2022-10-14T00:03:37.150Z,93.40
2022-10-14T00:06:10.192Z,93.30
2022-10-14T00:08:37.378Z,93.20
2022-10-14T00:11:12.391Z,93.30
2022-10-14T00:13:41.340Z,93.20
2022-10-14T00:16:19.743Z,93.50
2022-10-14T00:18:48.009Z,93.40
2022-10-14T00:21:15.635Z,93.30
2022-10-14T00:23:43.613Z,93.60
2022-10-14T00:26:26.470Z,93.50
2022-10-14T00:28:54.089Z,93.50
2022-10-14T00:31:21.461Z,93.70
2022-10-14T00:33:48.842Z,93.50
2022-10-14T00:36:18.509Z,93.50
2022-10-14T00:38:46.031Z,93.50
2022-10-14T00:41:16.554Z,93.60
2022-10-14T00:43:57.054Z,93.50
2022-10-14T00:46:27.441Z,93.60
2022-10-14T00:48:56.483Z,93.60
2022-10-14T00:51:23.665Z,93.60
2022-10-14T00:53:51.361Z,93.90
2022-10-14T00:56:24.582Z,93.80
2022-10-14T00:58:54.162Z,93.70
2022-10-14T01:01:21.542Z,93.70
2022-10-14T01:03:49.212Z,93.90
2022-10-14T01:06:35.092Z,93.90
2022-10-14T01:09:38.923Z,93.80
2022-10-14T01:12:28.984Z,93.80
2022-10-14T01:15:00.052Z,93.90
2022-10-14T01:17:52.172Z,94.20
2022-10-14T01:20:51.594Z,93.90
2022-10-14T01:23:52.524Z,93.90
2022-10-14T01:26:31.518Z,94.00
2022-10-14T01:29:30.151Z,94.10
2022-10-14T01:32:10.459Z,94.00
2022-10-14T01:34:44.603Z,94.00
2022-10-14T01:37:18.035Z,94.00
2022-10-14T01:39:49.255Z,94.00
2022-10-14T01:42:23.695Z,94.10
2022-10-14T01:44:59.659Z,94.10
2022-10-14T01:47:33.079Z,94.00
2022-10-14T01:50:09.887Z,94.10
2022-10-14T01:52:47.113Z,94.10
2022-10-14T01:55:25.221Z,94.20
2022-10-14T01:57:56.545Z,94.30
2022-10-14T02:00:23.980Z,94.50
2022-10-14T02:02:51.307Z,94.60
2022-10-14T02:05:56.820Z,94.70
2022-10-14T02:08:58.011Z,94.80
2022-10-14T02:11:26.107Z,94.90
2022-10-14T02:14:12.007Z,94.90
2022-10-14T02:17:01.268Z,94.90
2022-10-14T02:19:37.709Z,95.00
2022-10-14T02:22:12.886Z,95.10
2022-10-14T02:24:51.529Z,95.20
2022-10-14T02:27:22.748Z,95.30
2022-10-14T02:29:53.106Z,95.30
2022-10-14T02:32:24.377Z,95.30
2022-10-14T02:34:58.158Z,95.40
2022-10-14T02:37:28.415Z,95.40
2022-10-14T02:40:23.989Z,95.40
2022-10-14T02:42:51.516Z,95.50
2022-10-14T02:45:20.647Z,95.50
2022-10-14T02:47:48.223Z,95.50
2022-10-14T02:50:19.087Z,95.60
2022-10-14T02:52:46.536Z,95.60
2022-10-14T02:55:13.879Z,95.60
2022-10-14T02:57:41.203Z,95.60
2022-10-14T03:00:09.775Z,95.50
2022-10-14T03:02:37.017Z,95.50
2022-10-14T03:05:05.038Z,95.40
2022-10-14T03:07:32.523Z,95.30
2022-10-14T03:09:59.762Z,95.20
2022-10-14T03:12:27.062Z,94.80
2022-10-14T03:14:54.895Z,94.70
2022-10-14T03:17:22.108Z,94.70
2022-10-14T03:19:49.785Z,94.60
2022-10-14T03:22:17.120Z,94.60
2022-10-14T03:24:44.409Z,94.60
2022-10-14T03:27:11.768Z,94.70
2022-10-14T03:29:38.981Z,94.50
2022-10-14T03:32:06.360Z,94.50
2022-10-14T03:34:33.858Z,94.50
2022-10-14T03:37:01.135Z,94.50
2022-10-14T03:39:28.510Z,94.60
2022-10-14T03:41:56.047Z,94.60
2022-10-14T03:44:23.476Z,94.60
2022-10-14T03:46:50.777Z,94.60
2022-10-14T03:49:18.139Z,94.60
2022-10-14T03:51:45.424Z,94.50
2022-10-14T03:54:12.724Z,94.50
2022-10-14T03:56:40.142Z,94.40
2022-10-14T03:59:07.555Z,94.30
2022-10-14T04:01:35.071Z,94.30
2022-10-14T04:04:02.358Z,94.20
2022-10-14T04:06:31.183Z,94.10
2022-10-14T04:08:58.432Z,94.10
2022-10-14T04:11:25.771Z,94.00
2022-10-14T04:13:52.948Z,93.90
2022-10-14T04:16:20.402Z,93.80
2022-10-14T04:18:47.633Z,93.90
2022-10-14T04:21:14.918Z,93.90
2022-10-14T04:23:42.312Z,93.80
2022-10-14T04:26:10.414Z,93.80
2022-10-14T04:28:38.123Z,93.80
2022-10-14T04:31:06.363Z,93.80
2022-10-14T04:33:35.086Z,93.70
2022-10-14T04:36:06.164Z,93.70
2022-10-14T04:38:33.864Z,93.70
2022-10-14T04:41:01.451Z,94.00
2022-10-14T04:43:28.780Z,93.50
2022-10-14T04:45:56.234Z,93.40
2022-10-14T04:48:23.702Z,93.30
2022-10-14T04:50:53.204Z,93.30
2022-10-14T04:53:22.476Z,93.20
2022-10-14T04:55:51.691Z,93.30
2022-10-14T04:58:19.363Z,93.40
2022-10-14T05:00:46.731Z,93.40
2022-10-14T05:03:14.260Z,93.50
2022-10-14T05:05:42.024Z,93.40
2022-10-14T05:08:09.311Z,93.30
2022-10-14T05:10:36.752Z,93.30
2022-10-14T05:13:04.442Z,93.30
2022-10-14T05:15:31.837Z,93.30
2022-10-14T05:17:59.104Z,93.30
2022-10-14T05:20:26.815Z,93.40
2022-10-14T05:22:54.058Z,93.80
2022-10-14T05:25:21.375Z,93.50
2022-10-14T05:27:48.661Z,93.50
2022-10-14T05:30:16.648Z,93.60
2022-10-14T05:32:43.874Z,93.60
2022-10-14T05:35:11.342Z,93.70
2022-10-14T05:37:38.833Z,93.70
2022-10-14T05:40:07.150Z,93.70
2022-10-14T05:42:34.501Z,93.70
2022-10-14T05:45:01.809Z,93.80
2022-10-14T05:47:29.160Z,93.70
2022-10-14T05:49:56.466Z,93.80
2022-10-14T05:52:24.485Z,93.80
2022-10-14T05:54:52.254Z,93.80
2022-10-14T05:57:19.714Z,93.90
2022-10-14T05:59:47.066Z,93.90
2022-10-14T06:02:14.461Z,93.80
2022-10-14T06:04:42.602Z,93.80
2022-10-14T06:07:13.477Z,93.70
2022-10-14T06:09:40.806Z,93.90
2022-10-14T06:12:09.663Z,93.80
2022-10-14T06:14:38.717Z,93.80
2022-10-14T06:17:07.558Z,93.60
2022-10-14T06:19:34.925Z,93.40
2022-10-14T06:22:02.630Z,93.50
2022-10-14T06:24:29.936Z,93.30
2022-10-14T06:26:58.150Z,93.20
2022-10-14T06:29:31.227Z,93.20
2022-10-14T06:31:58.439Z,93.00
2022-10-14T06:34:25.691Z,92.80
2022-10-14T06:36:53.085Z,92.70
2022-10-14T06:39:20.664Z,92.50
2022-10-14T06:41:48.132Z,92.40
2022-10-14T06:44:16.236Z,92.30
2022-10-14T06:46:44.132Z,91.80
2022-10-14T06:49:11.424Z,91.90
2022-10-14T06:51:41.749Z,91.70
2022-10-14T06:54:09.312Z,91.40
2022-10-14T06:56:36.770Z,91.20
2022-10-14T06:59:05.879Z,91.10
2022-10-14T07:01:33.171Z,91.10
2022-10-14T07:04:00.465Z,91.10
2022-10-14T07:06:27.898Z,90.80
2022-10-14T07:08:55.237Z,90.70
2022-10-14T07:11:22.445Z,90.40
2022-10-14T07:13:49.774Z,90.30
2022-10-14T07:16:17.170Z,90.30
2022-10-14T07:18:44.406Z,90.10
2022-10-14T07:21:11.821Z,90.00
2022-10-14T07:23:39.126Z,90.00
2022-10-14T07:26:06.728Z,90.00
2022-10-14T07:28:34.363Z,89.60
2022-10-14T07:31:08.298Z,89.60
2022-10-14T07:33:40.773Z,89.30
2022-10-14T07:36:14.284Z,89.00
2022-10-14T07:38:44.143Z,88.40
2022-10-14T07:41:19.079Z,88.50
2022-10-14T07:44:03.344Z,88.30
2022-10-14T07:46:33.196Z,88.10
2022-10-14T07:49:12.094Z,87.40
2022-10-14T07:51:40.292Z,87.40
2022-10-14T07:54:11.502Z,87.00
2022-10-14T07:56:40.502Z,87.30
2022-10-14T07:59:08.050Z,87.60
2022-10-14T08:01:35.409Z,87.10
2022-10-14T08:04:02.649Z,87.20
2022-10-14T08:06:29.956Z,86.00
2022-10-14T08:08:57.101Z,85.80
2022-10-14T08:11:27.000Z,86.80
2022-10-14T08:13:55.375Z,86.40
2022-10-14T08:16:28.651Z,85.70
2022-10-14T08:18:58.095Z,83.00
2022-10-14T08:21:26.266Z,85.00
2022-10-14T08:23:54.961Z,84.80
2022-10-14T08:26:35.172Z,84.70
2022-10-14T08:29:05.419Z,83.50
2022-10-14T08:31:33.621Z,81.50
2022-10-14T08:34:00.920Z,82.70
2022-10-14T08:36:28.478Z,82.80
2022-10-14T08:38:55.958Z,84.20
2022-10-14T08:41:29.754Z,84.30
2022-10-14T08:44:23.015Z,82.50
2022-10-14T08:46:58.302Z,82.40
2022-10-14T08:50:02.462Z,80.70
2022-10-14T08:52:45.487Z,80.60
2022-10-14T08:55:37.258Z,80.60
2022-10-14T08:58:20.753Z,79.80
2022-10-14T09:00:51.728Z,79.70
2022-10-14T09:03:24.582Z,79.00
2022-10-14T09:06:04.220Z,75.40
2022-10-14T09:08:39.007Z,77.80
2022-10-14T09:11:12.011Z,73.90
2022-10-14T09:13:43.133Z,77.40
2022-10-14T09:16:20.533Z,78.20
2022-10-14T09:19:06.538Z,77.70
2022-10-14T09:21:58.541Z,76.40
2022-10-14T09:24:37.510Z,75.50
2022-10-14T09:27:24.663Z,74.60
2022-10-14T09:30:10.285Z,74.80
2022-10-14T09:32:46.515Z,74.70
2022-10-14T09:35:41.056Z,74.50
2022-10-14T09:38:10.296Z,73.50
2022-10-14T09:40:47.796Z,73.80
2022-10-14T09:43:22.609Z,73.60
2022-10-14T09:46:08.176Z,73.00
2022-10-14T09:48:52.571Z,73.10
2022-10-14T09:51:33.929Z,72.10
2022-10-14T09:54:05.043Z,72.10
2022-10-14T09:56:42.677Z,71.20
2022-10-14T09:59:22.571Z,70.40
2022-10-14T10:01:53.256Z,69.00
2022-10-14T10:04:47.855Z,69.20
2022-10-14T10:07:33.522Z,68.10
2022-10-14T10:10:16.674Z,68.70
2022-10-14T10:12:47.129Z,69.40
2022-10-14T10:15:21.535Z,69.20
2022-10-14T10:17:50.129Z,68.70
2022-10-14T10:20:36.679Z,68.40
2022-10-14T10:23:25.491Z,68.20
2022-10-14T10:25:53.178Z,67.80
2022-10-14T10:28:32.810Z,67.60
2022-10-14T10:31:18.267Z,67.10
2022-10-14T10:34:34.919Z,66.20
2022-10-14T10:37:46.465Z,65.20
2022-10-14T10:40:17.297Z,62.60
2022-10-14T10:43:38.023Z,60.90
2022-10-14T10:46:29.985Z,59.70
2022-10-14T10:50:00.014Z,57.90
2022-10-14T10:52:56.601Z,57.50
2022-10-14T10:56:04.713Z,56.80
2022-10-14T10:59:10.351Z,56.90
2022-10-14T11:01:56.673Z,56.80
2022-10-14T11:04:50.771Z,57.00
2022-10-14T11:08:22.233Z,56.10
2022-10-14T11:11:44.378Z,55.80
2022-10-14T11:14:27.487Z,56.60
2022-10-14T11:17:21.995Z,56.60
2022-10-14T11:20:15.289Z,56.50
2022-10-14T11:23:13.377Z,57.40
2022-10-14T11:25:51.521Z,58.10
2022-10-14T11:29:10.056Z,58.10
2022-10-14T11:32:20.759Z,57.70
2022-10-14T11:35:50.860Z,58.00
2022-10-14T11:39:01.587Z,58.70
2022-10-14T11:41:43.771Z,59.10
2022-10-14T11:44:39.060Z,59.50
2022-10-14T11:47:33.910Z,59.90
2022-10-14T11:50:38.151Z,59.60
2022-10-14T11:53:16.597Z,59.70
2022-10-14T11:55:53.633Z,59.50
2022-10-14T11:58:27.074Z,59.00
2022-10-14T12:01:00.142Z,58.80
2022-10-14T12:03:45.721Z,58.30
2022-10-14T12:06:19.205Z,58.20
2022-10-14T12:09:26.626Z,57.90
2022-10-14T12:12:05.647Z,58.20
2022-10-14T12:14:46.188Z,58.40
2022-10-14T12:17:54.771Z,58.80
2022-10-14T12:20:44.851Z,59.50
2022-10-14T12:23:50.200Z,60.40
2022-10-14T12:26:25.100Z,60.60
2022-10-14T12:28:54.562Z,60.40
2022-10-14T12:32:08.276Z,59.90
2022-10-14T12:34:44.141Z,60.00
2022-10-14T12:37:35.263Z,59.90
2022-10-14T12:40:03.000Z,59.60
2022-10-14T12:42:34.899Z,59.40
2022-10-14T12:45:29.246Z,59.40
2022-10-14T12:48:05.898Z,58.80
2022-10-14T12:50:39.905Z,57.90
2022-10-14T12:53:30.933Z,57.10
2022-10-14T12:56:04.871Z,57.10
2022-10-14T12:58:54.376Z,56.90
2022-10-14T13:01:22.072Z,56.50
2022-10-14T13:06:43.303Z,56.50
2022-10-14T13:09:13.927Z,56.20
2022-10-14T13:11:54.487Z,56.10
2022-10-14T13:14:53.252Z,55.10
2022-10-14T13:17:43.923Z,54.90
2022-10-14T13:20:35.994Z,54.50
2022-10-14T13:23:31.171Z,53.90
2022-10-14T13:26:07.200Z,53.70
2022-10-14T13:29:00.746Z,53.60
2022-10-14T13:31:37.789Z,53.50
2022-10-14T13:34:29.308Z,53.00
2022-10-14T13:37:22.380Z,53.00
2022-10-14T13:39:49.738Z,53.00
2022-10-14T13:42:32.755Z,53.00
2022-10-14T13:45:12.811Z,53.00
2022-10-14T13:47:48.308Z,52.40
2022-10-14T13:50:33.065Z,52.50
2022-10-14T13:53:15.306Z,52.80
2022-10-14T13:55:54.572Z,52.80
2022-10-14T13:58:24.846Z,52.90
2022-10-14T14:01:06.772Z,53.50
2022-10-14T14:03:43.445Z,53.60
2022-10-14T14:06:17.368Z,53.60
2022-10-14T14:09:02.531Z,54.00
2022-10-14T14:11:37.735Z,54.40
2022-10-14T14:14:21.142Z,54.40
2022-10-14T14:16:58.294Z,54.60
2022-10-14T14:19:38.217Z,54.70
2022-10-14T14:22:20.374Z,54.80
2022-10-14T14:24:48.963Z,55.20
2022-10-14T14:27:26.753Z,55.20
2022-10-14T14:29:55.470Z,55.50
2022-10-14T14:32:32.775Z,55.30
2022-10-14T14:35:03.449Z,55.30
2022-10-14T14:40:28.737Z,55.50
2022-10-14T14:43:00.524Z,55.30
2022-10-14T14:45:37.925Z,55.50
2022-10-14T14:48:08.433Z,56.20
2022-10-14T14:50:45.049Z,57.20
2022-10-14T14:53:24.200Z,56.90
2022-10-14T14:56:02.523Z,58.60
2022-10-14T14:58:37.764Z,60.60
2022-10-14T15:01:07.780Z,60.30
2022-10-14T15:04:12.812Z,63.10
2022-10-14T15:07:03.355Z,61.60
2022-10-14T15:09:56.057Z,61.50
2022-10-14T15:12:34.388Z,62.10
2022-10-14T15:15:04.515Z,63.00
2022-10-14T15:17:46.192Z,65.30
2022-10-14T15:20:36.952Z,65.00
2022-10-14T15:24:00.320Z,64.40
2022-10-14T15:26:49.387Z,64.70
2022-10-14T15:32:14.393Z,66.10
2022-10-14T15:34:41.954Z,67.00
2022-10-14T15:37:13.965Z,67.50
2022-10-14T15:39:41.326Z,68.70
2022-10-14T15:42:12.835Z,69.60
2022-10-14T15:44:40.100Z,70.70
2022-10-14T15:47:22.443Z,71.60
2022-10-14T15:49:50.987Z,72.60
2022-10-14T15:52:20.401Z,73.00
2022-10-14T15:54:50.961Z,73.40
2022-10-14T15:57:19.550Z,73.80
2022-10-14T15:59:47.050Z,74.80
2022-10-14T16:02:26.228Z,79.40
2022-10-14T16:05:18.865Z,80.30
2022-10-14T16:07:42.092Z,80.10
2022-10-14T16:10:14.643Z,79.30
2022-10-14T16:12:42.750Z,80.10
2022-10-14T16:15:52.012Z,79.80
2022-10-14T16:18:21.547Z,79.80
2022-10-14T16:20:49.309Z,79.60
2022-10-14T16:23:19.864Z,79.60
2022-10-14T16:25:50.132Z,79.90
2022-10-14T16:28:18.901Z,79.60
2022-10-14T16:30:50.143Z,79.60
2022-10-14T16:33:21.630Z,80.00
2022-10-14T16:35:56.210Z,80.40
2022-10-14T16:38:24.531Z,80.80
2022-10-14T16:40:57.900Z,80.80
2022-10-14T16:43:26.997Z,81.60
2022-10-14T16:45:59.283Z,82.30
2022-10-14T16:48:28.089Z,80.80
2022-10-14T16:50:57.708Z,80.80
2022-10-14T16:53:40.608Z,80.70
2022-10-14T16:56:44.179Z,81.10
2022-10-14T16:59:13.011Z,81.10
2022-10-14T17:01:40.484Z,81.00
2022-10-14T17:04:07.886Z,81.30
2022-10-14T17:06:35.256Z,81.30
2022-10-14T17:09:02.591Z,81.30
2022-10-14T17:11:31.096Z,81.70
2022-10-14T17:14:00.974Z,81.90
2022-10-14T17:16:29.391Z,81.90
2022-10-14T17:18:59.035Z,82.20
2022-10-14T17:21:29.915Z,82.30
2022-10-14T17:24:03.926Z,83.00
2022-10-14T17:26:33.496Z,82.10
2022-10-14T17:29:01.581Z,84.00
2022-10-14T17:31:30.738Z,82.60
2022-10-14T17:34:00.027Z,82.50
2022-10-14T17:36:30.811Z,82.40
2022-10-14T17:38:59.825Z,81.80
2022-10-14T17:41:29.777Z,82.70
2022-10-14T17:44:01.279Z,82.30
2022-10-14T17:46:29.875Z,81.60
2022-10-14T17:49:01.043Z,81.90
2022-10-14T17:51:28.943Z,82.20
2022-10-14T17:54:02.741Z,82.00
2022-10-14T17:56:33.559Z,82.00
2022-10-14T17:59:07.225Z,82.50
2022-10-14T18:02:02.214Z,82.40
2022-10-14T18:04:23.067Z,82.60
2022-10-14T18:06:50.368Z,82.60
2022-10-14T18:09:17.573Z,82.90
2022-10-14T18:12:07.794Z,82.40
2022-10-14T18:14:34.268Z,82.40
2022-10-14T18:17:02.058Z,82.40
2022-10-14T18:19:29.480Z,83.00
2022-10-14T18:21:57.157Z,84.10
2022-10-14T18:24:25.541Z,83.80
2022-10-14T18:26:53.534Z,83.70
2022-10-14T18:29:21.074Z,83.80
2022-10-14T18:34:18.253Z,83.10
2022-10-14T18:36:47.904Z,83.30
2022-10-14T18:39:15.571Z,83.20
2022-10-14T18:41:44.004Z,83.30
2022-10-14T18:44:11.456Z,83.50
2022-10-14T18:46:39.702Z,83.40
2022-10-14T18:49:09.908Z,83.70
2022-10-14T18:51:40.265Z,84.10
2022-10-14T18:54:19.663Z,84.30
2022-10-14T18:56:47.770Z,85.20
2022-10-14T18:59:20.673Z,85.80
2022-10-14T19:01:52.070Z,86.50
2022-10-14T19:04:29.998Z,87.10
2022-10-14T19:06:57.228Z,87.70
2022-10-14T19:09:29.717Z,88.30
2022-10-14T19:11:59.075Z,88.80
2022-10-14T19:14:28.665Z,89.20
2022-10-14T19:16:56.095Z,89.50
2022-10-14T19:19:23.329Z,90.00
2022-10-14T19:21:54.508Z,90.10
2022-10-14T19:24:22.266Z,90.20
2022-10-14T19:26:50.262Z,90.40
2022-10-14T19:29:17.931Z,90.50
2022-10-14T19:31:45.647Z,91.90
2022-10-14T19:34:16.394Z,91.60
2022-10-14T19:36:45.652Z,91.50
2022-10-14T19:39:16.571Z,91.50
2022-10-14T19:41:46.444Z,91.70
2022-10-14T19:44:16.191Z,91.70
2022-10-14T19:46:45.569Z,91.80
2022-10-14T19:49:15.434Z,91.90
2022-10-14T19:51:42.881Z,92.10
2022-10-14T19:54:12.473Z,92.50
2022-10-14T19:56:40.389Z,92.30
2022-10-14T19:59:08.759Z,92.50
2022-10-14T20:01:38.891Z,92.60
2022-10-14T20:04:09.089Z,92.80
2022-10-14T20:06:38.339Z,92.90
2022-10-14T20:09:07.922Z,93.10
2022-10-14T20:11:35.995Z,93.20
2022-10-14T20:14:03.423Z,93.40
2022-10-14T20:16:30.882Z,93.40
2022-10-14T20:18:58.559Z,93.60
2022-10-14T20:21:26.449Z,93.60
2022-10-14T20:23:53.697Z,93.70
2022-10-14T20:26:21.762Z,93.80
2022-10-14T20:28:50.170Z,93.90
2022-10-14T20:31:22.446Z,94.00
2022-10-14T20:33:49.761Z,94.00
2022-10-14T20:36:21.395Z,94.00
2022-10-14T20:38:49.448Z,94.10
2022-10-14T20:41:18.292Z,94.30
2022-10-14T20:43:47.147Z,94.10
2022-10-14T20:46:15.138Z,93.90
2022-10-14T20:48:43.009Z,94.10
2022-10-14T20:51:13.373Z,94.30
2022-10-14T20:56:14.450Z,94.10
2022-10-14T20:58:42.100Z,94.00
2022-10-14T21:01:17.763Z,93.90
2022-10-14T21:03:46.688Z,94.20
2022-10-14T21:06:18.609Z,94.30
2022-10-14T21:08:46.158Z,94.20
2022-10-14T21:11:15.797Z,94.10
2022-10-14T21:13:48.294Z,94.10
2022-10-14T21:16:20.886Z,94.10
2022-10-14T21:18:53.724Z,94.30
2022-10-14T21:21:26.748Z,94.10
2022-10-14T21:23:54.627Z,94.10
2022-10-14T21:26:22.566Z,95.60
2022-10-14T21:28:51.037Z,94.90
2022-10-14T21:31:19.491Z,94.50
2022-10-14T21:34:02.594Z,94.30
2022-10-14T21:36:33.708Z,94.50
2022-10-14T21:39:01.969Z,93.90
2022-10-14T21:41:29.360Z,93.90
2022-10-14T21:43:59.158Z,94.30
2022-10-14T21:46:27.114Z,94.50
2022-10-14T21:48:58.683Z,94.80
2022-10-14T21:51:29.719Z,95.10
2022-10-14T21:53:58.000Z,95.40
2022-10-14T21:56:26.756Z,97.80
2022-10-14T21:58:54.469Z,97.80
2022-10-14T22:01:29.273Z,97.20
2022-10-14T22:04:05.753Z,96.40
2022-10-14T22:06:36.349Z,95.80
2022-10-14T22:09:07.954Z,95.40
2022-10-14T22:11:40.066Z,95.10
2022-10-14T22:14:12.869Z,94.90
2022-10-14T22:16:40.643Z,94.70
2022-10-14T22:19:08.241Z,94.50
2022-10-14T22:21:38.271Z,94.40
2022-10-14T22:26:35.561Z,94.00
2022-10-14T22:29:13.871Z,94.00
2022-10-14T22:31:41.841Z,94.00
2022-10-14T22:34:12.333Z,94.00
2022-10-14T22:36:40.666Z,93.90
2022-10-14T22:39:14.118Z,94.00
2022-10-14T22:41:42.540Z,93.90
2022-10-14T22:44:10.857Z,93.80
2022-10-14T22:46:40.339Z,93.80
2022-10-14T22:49:07.712Z,93.70
2022-10-14T22:51:40.671Z,93.90
2022-10-14T22:54:09.507Z,94.00
2022-10-14T22:56:37.051Z,94.10
2022-10-14T22:59:08.820Z,94.10
2022-10-14T23:01:37.367Z,94.10
2022-10-14T23:04:05.504Z,94.10
2022-10-14T23:06:33.293Z,94.10
2022-10-14T23:09:01.557Z,94.20
2022-10-14T23:11:31.274Z,94.10
2022-10-14T23:14:01.505Z,94.00
2022-10-14T23:16:32.322Z,94.00
2022-10-14T23:18:59.756Z,94.10
2022-10-14T23:21:31.423Z,94.10
2022-10-14T23:24:01.754Z,94.20
2022-10-14T23:26:33.146Z,94.20
2022-10-14T23:29:04.443Z,94.10
2022-10-14T23:31:34.916Z,94.00
2022-10-14T23:34:10.116Z,94.00
2022-10-14T23:36:38.233Z,94.00
2022-10-14T23:39:06.002Z,94.00
2022-10-14T23:41:33.809Z,94.00
2022-10-14T23:44:39.384Z,94.00
2022-10-14T23:47:06.898Z,94.10
2022-10-14T23:49:34.179Z,94.10
2022-10-14T23:52:01.417Z,94.10
2022-10-14T23:54:28.815Z,94.10
2022-10-14T23:56:56.234Z,94.10
2022-10-14T23:59:23.795Z,94.20
